createdAt,value
2019-05-28T00:00:57.587Z,99.90
2019-05-28T00:03:26.372Z,99.90
2019-05-28T00:05:54.108Z,99.90
2019-05-28T00:08:21.874Z,99.90
2019-05-28T00:10:50.116Z,99.90
2019-05-28T00:13:17.822Z,99.90
2019-05-28T00:15:45.926Z,99.90
2019-05-28T00:18:14.542Z,99.90
2019-05-28T00:20:42.222Z,99.90
2019-05-28T00:23:10.027Z,99.90
2019-05-28T00:25:38.011Z,99.90
2019-05-28T00:28:05.767Z,99.90
2019-05-28T00:30:33.794Z,99.90
2019-05-28T00:33:01.376Z,99.90
2019-05-28T00:35:29.476Z,99.90
2019-05-28T00:37:57.510Z,99.90
2019-05-28T00:40:25.374Z,99.90
2019-05-28T00:42:53.442Z,99.90
2019-05-28T00:45:21.597Z,99.90
2019-05-28T00:47:49.435Z,99.90
2019-05-28T00:50:17.571Z,99.90
2019-05-28T00:52:45.662Z,99.90
2019-05-28T00:55:15.331Z,99.90
2019-05-28T00:57:44.976Z,99.90
2019-05-28T01:00:13.376Z,99.90
2019-05-28T01:02:41.550Z,99.90
2019-05-28T01:05:09.452Z,99.90
2019-05-28T01:07:37.486Z,99.90
2019-05-28T01:10:07.240Z,99.90
2019-05-28T01:12:34.995Z,99.90
2019-05-28T01:15:03.150Z,99.90
2019-05-28T01:17:31.196Z,99.90
2019-05-28T01:19:58.935Z,99.90
2019-05-28T01:22:26.759Z,99.90
2019-05-28T01:24:54.503Z,99.90
2019-05-28T01:27:22.489Z,99.90
2019-05-28T01:29:50.188Z,99.90
2019-05-28T01:32:19.002Z,99.90
2019-05-28T01:34:46.711Z,99.90
2019-05-28T01:37:14.671Z,99.90
2019-05-28T01:39:42.635Z,99.90
2019-05-28T01:42:10.839Z,99.90
2019-05-28T01:44:38.875Z,99.90
2019-05-28T01:47:06.999Z,99.90
2019-05-28T01:49:34.879Z,99.90
2019-05-28T01:52:02.677Z,99.90
2019-05-28T01:54:30.271Z,99.90
2019-05-28T01:56:59.017Z,99.90
2019-05-28T01:59:26.821Z,99.90
2019-05-28T02:01:55.656Z,99.90
2019-05-28T02:04:23.566Z,99.90
2019-05-28T02:06:51.805Z,99.90
2019-05-28T02:09:21.807Z,99.90
2019-05-28T02:11:49.442Z,99.90
2019-05-28T02:14:17.266Z,99.90
2019-05-28T02:16:45.147Z,99.90
2019-05-28T02:19:13.286Z,99.90
2019-05-28T02:21:41.360Z,99.90
2019-05-28T02:24:09.316Z,99.90
2019-05-28T02:26:37.036Z,99.90
2019-05-28T02:29:04.943Z,99.90
2019-05-28T02:31:32.963Z,99.90
2019-05-28T02:34:00.621Z,99.90
2019-05-28T02:36:28.522Z,99.90
2019-05-28T02:38:56.682Z,99.90
2019-05-28T02:41:24.819Z,99.90
2019-05-28T02:43:52.903Z,99.90
2019-05-28T02:46:20.959Z,99.90
2019-05-28T02:48:48.798Z,99.90
2019-05-28T02:51:17.295Z,99.90
2019-05-28T02:53:45.197Z,99.90
2019-05-28T02:56:15.759Z,99.90
2019-05-28T02:58:46.313Z,99.90
2019-05-28T03:01:14.912Z,99.90
2019-05-28T03:03:46.378Z,99.90
2019-05-28T03:06:14.684Z,99.90
2019-05-28T03:08:46.107Z,99.90
2019-05-28T03:11:14.010Z,99.90
2019-05-28T03:13:43.027Z,99.90
2019-05-28T03:16:11.319Z,99.90
2019-05-28T03:18:42.483Z,99.90
2019-05-28T03:21:11.691Z,99.90
2019-05-28T03:23:40.960Z,99.90
2019-05-28T03:26:09.821Z,99.90
2019-05-28T03:28:37.715Z,99.90
2019-05-28T03:31:05.464Z,99.90
2019-05-28T03:33:33.607Z,99.90
2019-05-28T03:36:03.919Z,99.90
2019-05-28T03:38:32.342Z,99.90
2019-05-28T03:41:00.364Z,99.90
2019-05-28T03:43:29.493Z,99.90
2019-05-28T03:45:57.142Z,99.90
2019-05-28T03:48:26.191Z,99.90
2019-05-28T03:50:54.290Z,99.90
2019-05-28T03:53:22.546Z,99.90
2019-05-28T03:55:51.726Z,99.90
2019-05-28T03:58:19.815Z,99.90
2019-05-28T04:00:47.740Z,99.90
2019-05-28T04:03:15.432Z,99.90
2019-05-28T04:05:43.506Z,99.90
2019-05-28T04:08:11.505Z,99.90
2019-05-28T04:10:39.240Z,99.90
2019-05-28T04:13:07.060Z,99.90
2019-05-28T04:15:35.008Z,99.90
2019-05-28T04:18:03.340Z,99.90
2019-05-28T04:20:31.792Z,99.90
2019-05-28T04:22:59.840Z,99.90
2019-05-28T04:25:27.571Z,99.90
2019-05-28T04:27:55.298Z,99.90
2019-05-28T04:30:23.288Z,99.90
2019-05-28T04:32:51.205Z,99.90
2019-05-28T04:35:19.107Z,99.90
2019-05-28T04:37:46.752Z,99.90
2019-05-28T04:40:15.002Z,99.90
2019-05-28T04:42:42.905Z,99.90
2019-05-28T04:45:11.079Z,99.90
2019-05-28T04:47:38.811Z,99.90
2019-05-28T04:50:06.518Z,99.90
2019-05-28T04:52:34.686Z,99.90
2019-05-28T04:55:02.426Z,99.90
2019-05-28T04:57:30.236Z,99.90
2019-05-28T04:59:57.984Z,99.90
2019-05-28T05:02:25.741Z,99.90
2019-05-28T05:04:53.740Z,99.90
2019-05-28T05:07:21.846Z,99.90
2019-05-28T05:09:49.476Z,99.90
2019-05-28T05:12:17.672Z,99.90
2019-05-28T05:14:45.600Z,99.90
2019-05-28T05:17:13.347Z,99.90
2019-05-28T05:19:41.190Z,99.90
2019-05-28T05:22:08.891Z,99.90
2019-05-28T05:24:36.504Z,99.90
2019-05-28T05:27:04.227Z,99.90
2019-05-28T05:29:32.121Z,99.90
2019-05-28T05:31:59.883Z,99.90
2019-05-28T05:34:27.841Z,99.90
2019-05-28T05:36:55.730Z,99.90
2019-05-28T05:39:23.657Z,99.90
2019-05-28T05:41:51.382Z,99.90
2019-05-28T05:44:19.020Z,99.90
2019-05-28T05:46:46.882Z,99.90
2019-05-28T05:49:14.895Z,99.90
2019-05-28T05:51:42.660Z,99.90
2019-05-28T05:54:10.715Z,99.90
2019-05-28T05:56:38.861Z,99.90
2019-05-28T05:59:06.539Z,99.90
2019-05-28T06:01:34.723Z,99.90
2019-05-28T06:04:02.499Z,99.90
2019-05-28T06:06:30.954Z,99.90
2019-05-28T06:08:59.929Z,99.90
2019-05-28T06:11:28.410Z,99.90
2019-05-28T06:13:56.164Z,99.90
2019-05-28T06:16:24.522Z,99.90
2019-05-28T06:18:52.221Z,99.90
2019-05-28T06:21:20.307Z,99.90
2019-05-28T06:23:48.112Z,99.90
2019-05-28T06:26:15.933Z,99.90
2019-05-28T06:28:44.317Z,99.90
2019-05-28T06:31:12.883Z,99.90
2019-05-28T06:33:55.391Z,99.90
2019-05-28T06:36:10.759Z,99.90
2019-05-28T06:38:38.869Z,99.90
2019-05-28T06:41:06.535Z,99.90
2019-05-28T06:43:34.522Z,99.90
2019-05-28T06:46:02.288Z,99.90
2019-05-28T06:48:29.992Z,99.90
2019-05-28T06:50:57.602Z,99.90
2019-05-28T06:53:25.345Z,99.90
2019-05-28T06:55:54.265Z,99.90
2019-05-28T06:58:37.805Z,99.90
2019-05-28T07:00:51.787Z,99.90
2019-05-28T07:03:20.076Z,99.90
2019-05-28T07:06:03.334Z,99.90
2019-05-28T07:08:17.788Z,99.90
2019-05-28T07:10:57.076Z,99.90
2019-05-28T07:13:15.004Z,99.90
2019-05-28T07:15:43.398Z,99.90
2019-05-28T07:18:11.513Z,99.90
2019-05-28T07:20:39.265Z,99.90
2019-05-28T07:23:07.290Z,99.90
2019-05-28T07:25:35.539Z,99.90
2019-05-28T07:28:10.968Z,99.90
2019-05-28T07:30:33.152Z,99.90
2019-05-28T07:33:01.345Z,99.90
2019-05-28T07:35:42.634Z,99.90
2019-05-28T07:37:59.700Z,99.90
2019-05-28T07:40:31.496Z,99.90
2019-05-28T07:42:57.502Z,99.90
2019-05-28T07:45:25.430Z,99.90
2019-05-28T07:47:53.553Z,99.90
2019-05-28T07:50:21.756Z,99.90
2019-05-28T07:52:49.555Z,99.90
2019-05-28T07:55:17.602Z,99.90
2019-05-28T07:57:45.384Z,99.90
2019-05-28T08:00:13.741Z,99.90
2019-05-28T08:02:41.470Z,99.90
2019-05-28T08:05:09.445Z,99.90
2019-05-28T08:07:37.343Z,99.90
2019-05-28T08:10:05.972Z,99.90
2019-05-28T08:12:34.074Z,99.90
2019-05-28T08:15:02.161Z,99.90
2019-05-28T08:17:31.353Z,99.90
2019-05-28T08:19:59.561Z,99.90
2019-05-28T08:22:41.015Z,99.90
2019-05-28T08:24:57.074Z,99.90
2019-05-28T08:27:27.744Z,99.90
2019-05-28T08:29:55.508Z,99.90
2019-05-28T08:32:23.223Z,99.90
2019-05-28T08:35:04.958Z,99.90
2019-05-28T08:37:21.028Z,99.90
2019-05-28T08:39:49.904Z,99.90
2019-05-28T08:42:20.911Z,99.90
2019-05-28T08:44:47.451Z,99.90
2019-05-28T08:47:15.524Z,99.90
2019-05-28T08:49:44.078Z,99.90
2019-05-28T08:52:12.047Z,99.90
2019-05-28T08:54:39.729Z,99.90
2019-05-28T08:57:07.907Z,99.90
2019-05-28T08:59:36.467Z,99.90
2019-05-28T09:02:04.441Z,99.90
2019-05-28T09:04:32.167Z,99.90
2019-05-28T09:07:00.939Z,99.90
2019-05-28T09:09:29.149Z,99.90
2019-05-28T09:11:57.517Z,99.90
2019-05-28T09:14:25.860Z,99.90
2019-05-28T09:16:53.622Z,99.90
2019-05-28T09:19:21.441Z,99.90
2019-05-28T09:21:50.449Z,99.90
2019-05-28T09:24:18.372Z,99.90
2019-05-28T09:26:46.318Z,99.90
2019-05-28T09:29:14.332Z,99.90
2019-05-28T09:31:42.381Z,99.90
2019-05-28T09:34:10.412Z,99.90
2019-05-28T09:36:38.068Z,99.90
2019-05-28T09:39:07.326Z,99.90
2019-05-28T09:41:34.963Z,99.90
2019-05-28T09:44:03.225Z,99.90
2019-05-28T09:46:31.094Z,99.90
2019-05-28T09:48:59.208Z,99.90
2019-05-28T09:51:27.067Z,99.90
2019-05-28T09:53:54.900Z,99.90
2019-05-28T09:56:22.882Z,99.90
2019-05-28T09:58:50.928Z,99.90
2019-05-28T10:01:19.296Z,94.70
2019-05-28T10:03:47.102Z,92.80
2019-05-28T10:06:17.267Z,96.20
2019-05-28T10:08:44.681Z,99.90
2019-05-28T10:11:12.526Z,99.90
2019-05-28T10:13:41.792Z,97.60
2019-05-28T10:16:09.978Z,97.10
2019-05-28T10:18:37.624Z,99.90
2019-05-28T10:21:17.730Z,99.90
2019-05-28T10:23:35.563Z,99.90
2019-05-28T10:26:04.358Z,99.90
2019-05-28T10:28:32.073Z,98.30
2019-05-28T10:30:59.842Z,99.90
2019-05-28T10:33:27.677Z,99.90
2019-05-28T10:35:55.729Z,99.90
2019-05-28T10:38:23.461Z,99.90
2019-05-28T10:40:51.319Z,99.90
2019-05-28T10:43:20.115Z,99.90
2019-05-28T10:45:47.870Z,99.70
2019-05-28T10:48:15.616Z,99.20
2019-05-28T10:50:43.280Z,99.90
2019-05-28T10:53:11.157Z,99.90
2019-05-28T10:55:38.949Z,99.90
2019-05-28T10:58:06.600Z,99.90
2019-05-28T11:00:34.433Z,96.00
2019-05-28T11:03:02.544Z,95.30
2019-05-28T11:05:30.222Z,99.00
2019-05-28T11:07:57.913Z,98.60
2019-05-28T11:10:25.807Z,95.70
2019-05-28T11:12:53.760Z,94.90
2019-05-28T11:15:24.036Z,94.10
2019-05-28T11:17:51.902Z,92.90
2019-05-28T11:20:20.120Z,95.10
2019-05-28T11:22:48.548Z,95.30
2019-05-28T11:25:17.907Z,96.90
2019-05-28T11:27:46.425Z,97.60
2019-05-28T11:30:17.047Z,98.50
2019-05-28T11:32:46.431Z,98.10
2019-05-28T11:35:17.451Z,97.50
2019-05-28T11:37:45.403Z,97.40
2019-05-28T11:40:14.694Z,95.60
2019-05-28T11:42:43.607Z,95.70
2019-05-28T11:45:14.267Z,96.90
2019-05-28T11:47:45.288Z,97.00
2019-05-28T11:50:13.632Z,94.50
2019-05-28T11:52:41.825Z,95.30
2019-05-28T11:55:12.238Z,95.60
2019-05-28T11:57:39.978Z,96.20
2019-05-28T12:00:11.051Z,95.50
2019-05-28T12:02:39.466Z,95.50
2019-05-28T12:05:07.561Z,94.40
2019-05-28T12:07:35.634Z,94.10
2019-05-28T12:10:04.819Z,91.90
2019-05-28T12:12:32.578Z,81.80
2019-05-28T12:15:00.298Z,78.20
2019-05-28T12:17:41.440Z,85.00
2019-05-28T12:19:58.201Z,89.60
2019-05-28T12:22:26.014Z,93.70
2019-05-28T12:24:54.086Z,94.40
2019-05-28T12:27:21.980Z,95.70
2019-05-28T12:29:52.234Z,97.30
2019-05-28T12:32:20.090Z,99.60
2019-05-28T12:34:48.144Z,99.90
2019-05-28T12:37:16.033Z,99.90
2019-05-28T12:39:43.997Z,99.90
2019-05-28T12:42:12.378Z,99.90
2019-05-28T12:44:42.555Z,99.90
2019-05-28T12:47:14.427Z,99.90
2019-05-28T12:49:39.860Z,99.90
2019-05-28T12:52:07.620Z,99.90
2019-05-28T12:54:35.691Z,99.90
2019-05-28T12:57:03.419Z,99.90
2019-05-28T12:59:31.141Z,99.90
2019-05-28T13:01:59.008Z,99.90
2019-05-28T13:04:26.791Z,99.90
2019-05-28T13:06:54.932Z,99.90
2019-05-28T13:09:22.642Z,99.90
2019-05-28T13:11:50.580Z,99.90
2019-05-28T13:14:18.681Z,99.90
2019-05-28T13:16:46.486Z,99.90
2019-05-28T13:19:14.618Z,99.90
2019-05-28T13:21:42.470Z,99.90
2019-05-28T13:24:10.853Z,99.90
2019-05-28T13:26:39.580Z,99.90
2019-05-28T13:29:07.355Z,99.90
2019-05-28T13:31:36.104Z,99.90
2019-05-28T13:34:04.367Z,99.90
2019-05-28T13:36:32.077Z,99.90
2019-05-28T13:38:59.926Z,99.90
2019-05-28T13:41:27.770Z,99.90
2019-05-28T13:43:55.966Z,99.90
2019-05-28T13:46:24.186Z,99.90
2019-05-28T13:48:52.003Z,99.90
2019-05-28T13:51:20.088Z,99.90
2019-05-28T13:53:49.060Z,99.90
2019-05-28T13:56:17.014Z,99.90
2019-05-28T13:58:44.774Z,99.90
2019-05-28T14:01:12.932Z,99.90
2019-05-28T14:03:40.905Z,99.90
2019-05-28T14:06:08.859Z,99.90
2019-05-28T14:08:46.535Z,99.90
2019-05-28T14:11:06.611Z,99.90
2019-05-28T14:13:34.654Z,99.90
2019-05-28T14:16:04.091Z,99.90
2019-05-28T14:18:32.690Z,99.90
2019-05-28T14:21:00.728Z,99.90
2019-05-28T14:23:28.735Z,99.90
2019-05-28T14:25:56.884Z,99.90
2019-05-28T14:28:26.407Z,99.90
2019-05-28T14:31:00.033Z,99.90
2019-05-28T14:33:23.998Z,99.90
2019-05-28T14:35:53.261Z,99.90
2019-05-28T14:38:21.191Z,99.90
2019-05-28T14:40:50.249Z,99.90
2019-05-28T14:43:18.148Z,99.90
2019-05-28T14:45:46.082Z,99.90
2019-05-28T14:48:14.003Z,99.90
2019-05-28T14:50:42.027Z,99.90
2019-05-28T14:53:10.280Z,99.90
2019-05-28T14:55:38.265Z,99.90
2019-05-28T14:58:06.440Z,99.90
2019-05-28T15:00:34.459Z,99.90
2019-05-28T15:03:02.264Z,99.90
2019-05-28T15:05:30.118Z,99.90
2019-05-28T15:07:58.135Z,99.90
2019-05-28T15:10:25.978Z,99.90
2019-05-28T15:12:54.265Z,99.90
2019-05-28T15:15:35.289Z,99.90
2019-05-28T15:17:52.665Z,99.90
2019-05-28T15:20:20.895Z,98.40
2019-05-28T15:22:48.744Z,94.40
2019-05-28T15:25:16.998Z,90.60
2019-05-28T15:27:44.846Z,84.60
2019-05-28T15:30:13.343Z,74.60
2019-05-28T15:32:41.053Z,66.90
2019-05-28T15:35:11.168Z,66.10
2019-05-28T15:37:39.022Z,66.00
2019-05-28T15:40:07.475Z,62.40
2019-05-28T15:42:35.499Z,68.30
2019-05-28T15:45:04.007Z,72.60
2019-05-28T15:47:32.152Z,66.60
2019-05-28T15:50:00.116Z,67.50
2019-05-28T15:52:28.622Z,64.00
2019-05-28T15:54:56.471Z,61.30
2019-05-28T15:57:24.335Z,60.80
2019-05-28T15:59:52.140Z,61.90
2019-05-28T16:02:20.552Z,63.80
2019-05-28T16:04:49.049Z,67.60
2019-05-28T16:07:16.913Z,69.20
2019-05-28T16:09:55.727Z,70.30
2019-05-28T16:12:14.183Z,73.20
2019-05-28T16:14:42.307Z,75.60
2019-05-28T16:17:09.981Z,75.70
2019-05-28T16:19:37.682Z,72.90
2019-05-28T16:22:05.929Z,72.70
2019-05-28T16:24:34.199Z,73.40
2019-05-28T16:27:02.285Z,76.70
2019-05-28T16:29:31.807Z,76.20
2019-05-28T16:31:59.804Z,80.30
2019-05-28T16:34:27.923Z,79.00
2019-05-28T16:36:56.168Z,81.30
2019-05-28T16:39:24.371Z,82.40
2019-05-28T16:41:52.180Z,89.00
2019-05-28T16:44:20.139Z,96.70
2019-05-28T16:46:48.170Z,99.90
2019-05-28T16:49:15.926Z,99.90
2019-05-28T16:51:43.651Z,99.90
2019-05-28T16:54:19.027Z,99.90
2019-05-28T16:56:41.472Z,99.90
2019-05-28T16:59:09.583Z,99.90
2019-05-28T17:01:38.383Z,99.90
2019-05-28T17:04:06.139Z,99.90
2019-05-28T17:06:34.133Z,99.90
2019-05-28T17:09:01.975Z,99.90
2019-05-28T17:11:32.371Z,99.90
2019-05-28T17:14:00.384Z,99.90
2019-05-28T17:16:28.373Z,99.90
2019-05-28T17:18:56.552Z,99.90
2019-05-28T17:21:24.371Z,99.90
2019-05-28T17:23:52.207Z,99.90
2019-05-28T17:26:20.444Z,99.90
2019-05-28T17:28:48.286Z,99.90
2019-05-28T17:31:16.419Z,99.90
2019-05-28T17:33:44.231Z,99.90
2019-05-28T17:36:11.979Z,99.90
2019-05-28T17:38:39.811Z,99.90
2019-05-28T17:41:07.514Z,99.90
2019-05-28T17:43:35.843Z,99.90
2019-05-28T17:46:05.068Z,99.90
2019-05-28T17:48:32.962Z,99.90
2019-05-28T17:51:01.243Z,99.90
2019-05-28T17:53:29.360Z,99.90
2019-05-28T17:55:57.312Z,99.90
2019-05-28T17:58:25.404Z,99.90
2019-05-28T18:00:53.481Z,99.90
2019-05-28T18:03:21.385Z,99.90
2019-05-28T18:05:49.529Z,99.90
2019-05-28T18:08:17.496Z,99.90
2019-05-28T18:10:45.394Z,99.90
2019-05-28T18:13:13.272Z,99.90
2019-05-28T18:15:40.949Z,99.90
2019-05-28T18:18:08.729Z,99.90
2019-05-28T18:20:36.525Z,99.90
2019-05-28T18:23:04.425Z,99.90
2019-05-28T18:25:32.212Z,99.90
2019-05-28T18:28:00.142Z,99.90
2019-05-28T18:30:28.162Z,99.90
2019-05-28T18:32:55.864Z,99.90
2019-05-28T18:35:23.847Z,99.90
2019-05-28T18:37:51.705Z,99.90
2019-05-28T18:40:21.591Z,99.90
2019-05-28T18:42:49.419Z,99.90
2019-05-28T18:45:17.671Z,99.90
2019-05-28T18:47:45.645Z,99.90
2019-05-28T18:50:13.797Z,99.90
2019-05-28T18:52:42.736Z,99.90
2019-05-28T18:55:11.119Z,99.90
2019-05-28T18:57:39.272Z,99.90
2019-05-28T19:00:08.787Z,99.90
2019-05-28T19:02:38.445Z,99.90
2019-05-28T19:05:06.570Z,99.90
2019-05-28T19:07:34.283Z,99.90
2019-05-28T19:10:02.033Z,99.90
2019-05-28T19:12:31.767Z,99.90
2019-05-28T19:15:00.131Z,99.90
2019-05-28T19:17:28.132Z,99.90
2019-05-28T19:19:56.120Z,99.90
2019-05-28T19:22:24.008Z,99.90
2019-05-28T19:24:52.227Z,99.90
2019-05-28T19:27:20.148Z,99.90
2019-05-28T19:29:50.640Z,99.90
2019-05-28T19:32:17.623Z,99.90
2019-05-28T19:34:48.617Z,99.90
2019-05-28T19:37:16.195Z,99.90
2019-05-28T19:39:44.857Z,99.90
2019-05-28T19:42:12.678Z,99.90
2019-05-28T19:44:40.751Z,99.90
2019-05-28T19:47:08.452Z,99.90
2019-05-28T19:49:36.896Z,99.90
2019-05-28T19:52:04.753Z,99.90
2019-05-28T19:54:32.519Z,99.90
2019-05-28T19:57:00.729Z,99.90
2019-05-28T19:59:29.007Z,99.90
2019-05-28T20:01:57.192Z,99.90
2019-05-28T20:04:24.906Z,99.90
2019-05-28T20:06:52.945Z,99.90
2019-05-28T20:09:22.542Z,99.90
2019-05-28T20:11:50.713Z,99.90
2019-05-28T20:14:18.939Z,99.90
2019-05-28T20:16:47.287Z,99.90
2019-05-28T20:19:15.612Z,99.90
2019-05-28T20:21:43.491Z,99.90
2019-05-28T20:24:11.420Z,99.90
2019-05-28T20:26:39.667Z,99.90
2019-05-28T20:29:08.943Z,99.90
2019-05-28T20:31:37.995Z,99.90
2019-05-28T20:34:07.119Z,99.90
2019-05-28T20:36:35.094Z,99.90
2019-05-28T20:39:04.138Z,99.90
2019-05-28T20:41:32.423Z,99.90
2019-05-28T20:44:00.278Z,99.90
2019-05-28T20:46:28.323Z,99.90
2019-05-28T20:48:55.970Z,99.90
2019-05-28T20:51:24.032Z,99.90
2019-05-28T20:53:52.064Z,99.90
2019-05-28T20:56:19.823Z,99.90
2019-05-28T20:58:47.836Z,99.90
2019-05-28T21:01:15.522Z,99.90
2019-05-28T21:03:43.212Z,99.90
2019-05-28T21:06:11.128Z,99.90
2019-05-28T21:08:38.894Z,99.90
2019-05-28T21:11:06.615Z,99.90
2019-05-28T21:13:34.508Z,99.90
2019-05-28T21:16:02.288Z,99.90
2019-05-28T21:18:30.056Z,99.90
2019-05-28T21:20:58.144Z,99.90
2019-05-28T21:23:25.857Z,99.90
2019-05-28T21:25:54.135Z,99.90
2019-05-28T21:28:21.818Z,99.90
2019-05-28T21:30:50.592Z,99.90
2019-05-28T21:33:18.431Z,99.90
2019-05-28T21:35:46.433Z,99.90
2019-05-28T21:38:14.202Z,99.90
2019-05-28T21:40:41.963Z,99.90
2019-05-28T21:43:10.156Z,99.90
2019-05-28T21:45:38.799Z,99.90
2019-05-28T21:48:06.525Z,99.90
2019-05-28T21:50:34.389Z,99.90
2019-05-28T21:53:03.204Z,99.90
2019-05-28T21:55:31.355Z,99.90
2019-05-28T21:57:59.891Z,99.90
2019-05-28T22:00:48.264Z,99.90
2019-05-28T22:03:16.521Z,99.90
2019-05-28T22:05:44.711Z,99.90
2019-05-28T22:08:13.205Z,99.90
2019-05-28T22:10:40.929Z,99.90
2019-05-28T22:13:20.355Z,99.90
2019-05-28T22:15:38.408Z,99.90
2019-05-28T22:18:06.316Z,99.90
2019-05-28T22:20:34.160Z,99.90
2019-05-28T22:23:02.672Z,99.90
2019-05-28T22:25:30.439Z,99.90
2019-05-28T22:27:58.802Z,99.90
2019-05-28T22:30:26.552Z,99.90
2019-05-28T22:32:55.699Z,99.90
2019-05-28T22:35:23.927Z,99.90
2019-05-28T22:37:51.895Z,99.90
2019-05-28T22:40:19.860Z,99.90
2019-05-28T22:42:47.938Z,99.90
2019-05-28T22:45:15.723Z,99.90
2019-05-28T22:47:43.659Z,99.90
2019-05-28T22:50:22.197Z,99.90
2019-05-28T22:52:41.780Z,99.90
2019-05-28T22:55:09.861Z,99.90
2019-05-28T22:57:38.465Z,99.90
2019-05-28T23:00:08.818Z,99.90
2019-05-28T23:02:36.831Z,99.90
2019-05-28T23:05:05.199Z,99.90
2019-05-28T23:07:33.239Z,99.90
2019-05-28T23:10:01.637Z,99.90
2019-05-28T23:12:29.883Z,99.90
2019-05-28T23:14:57.541Z,99.90
2019-05-28T23:17:25.391Z,99.90
2019-05-28T23:19:53.064Z,99.90
2019-05-28T23:22:21.100Z,99.90
2019-05-28T23:24:48.943Z,99.90
2019-05-28T23:27:16.725Z,99.90
2019-05-28T23:29:44.515Z,99.90
2019-05-28T23:32:14.219Z,99.90
2019-05-28T23:34:41.939Z,99.90
2019-05-28T23:37:10.965Z,99.90
2019-05-28T23:39:38.905Z,99.90
2019-05-28T23:42:07.266Z,99.90
2019-05-28T23:44:35.157Z,99.90
2019-05-28T23:47:03.898Z,99.90
2019-05-28T23:49:31.756Z,99.90
2019-05-28T23:52:00.574Z,99.90
2019-05-28T23:54:28.306Z,99.90
2019-05-28T23:56:56.659Z,99.90
2019-05-28T23:59:24.610Z,99.90
